sensor_id;sensor_type;location;lat;lon;timestamp;P1;durP1;ratioP1;P2;durP2;ratioP2
34212;SDS011;20477;51.390;8.102;2023-03-01T04:18:52;25.45;;;14.18;;
34212;SDS011;20477;51.390;8.102;2023-03-01T04:21:21;23.45;;;13.35;;
34212;SDS011;20477;51.390;8.102;2023-03-01T04:23:49;22.38;;;12.73;;
34212;SDS011;20477;51.390;8.102;2023-03-01T04:26:19;19.98;;;12.20;;
34212;SDS011;20477;51.390;8.102;2023-03-01T04:28:47;17.88;;;11.45;;
34212;SDS011;20477;51.390;8.102;2023-03-01T04:31:17;21.58;;;12.43;;
34212;SDS011;20477;51.390;8.102;2023-03-01T04:33:48;22.55;;;13.82;;
34212;SDS011;20477;51.390;8.102;2023-03-01T04:36:20;25.60;;;13.57;;
34212;SDS011;20477;51.390;8.102;2023-03-01T04:38:49;27.60;;;13.13;;
34212;SDS011;20477;51.390;8.102;2023-03-01T04:41:20;26.58;;;15.00;;
34212;SDS011;20477;51.390;8.102;2023-03-01T04:43:48;29.63;;;14.90;;
34212;SDS011;20477;51.390;8.102;2023-03-01T04:46:17;24.67;;;14.43;;
34212;SDS011;20477;51.390;8.102;2023-03-01T04:48:47;27.55;;;14.65;;
34212;SDS011;20477;51.390;8.102;2023-03-01T04:51:15;31.60;;;14.63;;
34212;SDS011;20477;51.390;8.102;2023-03-01T04:53:46;24.55;;;13.18;;
34212;SDS011;20477;51.390;8.102;2023-03-01T04:56:14;23.75;;;14.13;;
34212;SDS011;20477;51.390;8.102;2023-03-01T04:58:44;24.23;;;14.32;;
34212;SDS011;20477;51.390;8.102;2023-03-01T05:01:13;28.27;;;14.00;;
34212;SDS011;20477;51.390;8.102;2023-03-01T05:03:43;26.08;;;14.48;;
34212;SDS011;20477;51.390;8.102;2023-03-01T05:06:13;23.10;;;14.43;;
34212;SDS011;20477;51.390;8.102;2023-03-01T05:08:41;29.52;;;14.93;;
34212;SDS011;20477;51.390;8.102;2023-03-01T05:11:11;28.35;;;14.70;;
34212;SDS011;20477;51.390;8.102;2023-03-01T05:13:39;28.38;;;14.43;;
34212;SDS011;20477;51.390;8.102;2023-03-01T05:16:08;25.60;;;14.43;;
34212;SDS011;20477;51.390;8.102;2023-03-01T05:18:38;27.10;;;13.20;;
34212;SDS011;20477;51.390;8.102;2023-03-01T05:21:08;25.30;;;13.18;;
34212;SDS011;20477;51.390;8.102;2023-03-01T05:23:37;24.90;;;13.80;;
34212;SDS011;20477;51.390;8.102;2023-03-01T05:26:07;27.15;;;13.98;;
34212;SDS011;20477;51.390;8.102;2023-03-01T05:28:54;30.00;;;13.65;;
34212;SDS011;20477;51.390;8.102;2023-03-01T05:31:25;31.05;;;15.68;;
34212;SDS011;20477;51.390;8.102;2023-03-01T05:33:53;30.73;;;15.13;;
34212;SDS011;20477;51.390;8.102;2023-03-01T05:36:21;26.45;;;14.38;;
34212;SDS011;20477;51.390;8.102;2023-03-01T05:38:49;25.63;;;14.02;;
34212;SDS011;20477;51.390;8.102;2023-03-01T05:41:18;27.73;;;14.85;;
34212;SDS011;20477;51.390;8.102;2023-03-01T05:43:46;26.48;;;14.32;;
34212;SDS011;20477;51.390;8.102;2023-03-01T05:46:15;32.65;;;15.02;;
34212;SDS011;20477;51.390;8.102;2023-03-01T05:48:43;33.05;;;15.48;;
34212;SDS011;20477;51.390;8.102;2023-03-01T05:51:11;24.42;;;15.13;;
34212;SDS011;20477;51.390;8.102;2023-03-01T05:53:40;26.40;;;14.80;;
34212;SDS011;20477;51.390;8.102;2023-03-01T05:56:08;22.45;;;13.63;;
34212;SDS011;20477;51.390;8.102;2023-03-01T05:58:37;34.33;;;15.98;;
34212;SDS011;20477;51.390;8.102;2023-03-01T06:01:05;22.95;;;13.63;;
34212;SDS011;20477;51.390;8.102;2023-03-01T06:03:34;24.65;;;14.52;;
34212;SDS011;20477;51.390;8.102;2023-03-01T06:06:03;23.08;;;13.95;;
34212;SDS011;20477;51.390;8.102;2023-03-01T06:08:31;29.17;;;14.80;;
34212;SDS011;20477;51.390;8.102;2023-03-01T06:10:59;25.08;;;15.55;;
34212;SDS011;20477;51.390;8.102;2023-03-01T06:13:27;26.65;;;15.70;;
34212;SDS011;20477;51.390;8.102;2023-03-01T06:15:56;28.73;;;16.23;;
34212;SDS011;20477;51.390;8.102;2023-03-01T06:18:24;26.67;;;15.45;;
34212;SDS011;20477;51.390;8.102;2023-03-01T06:20:53;25.38;;;14.20;;
34212;SDS011;20477;51.390;8.102;2023-03-01T06:23:22;28.55;;;15.48;;
34212;SDS011;20477;51.390;8.102;2023-03-01T06:25:51;29.27;;;15.75;;
34212;SDS011;20477;51.390;8.102;2023-03-01T06:28:19;29.00;;;16.38;;
34212;SDS011;20477;51.390;8.102;2023-03-01T06:30:47;27.83;;;14.95;;
34212;SDS011;20477;51.390;8.102;2023-03-01T06:33:16;28.25;;;15.73;;
34212;SDS011;20477;51.390;8.102;2023-03-01T06:35:46;42.40;;;16.00;;
34212;SDS011;20477;51.390;8.102;2023-03-01T06:38:15;24.90;;;15.55;;
34212;SDS011;20477;51.390;8.102;2023-03-01T06:40:45;34.33;;;15.15;;
34212;SDS011;20477;51.390;8.102;2023-03-01T06:43:19;36.33;;;16.27;;
34212;SDS011;20477;51.390;8.102;2023-03-01T06:45:47;31.13;;;17.40;;
34212;SDS011;20477;51.390;8.102;2023-03-01T06:48:15;33.58;;;15.73;;
34212;SDS011;20477;51.390;8.102;2023-03-01T06:50:44;35.92;;;16.30;;
34212;SDS011;20477;51.390;8.102;2023-03-01T06:53:12;26.58;;;16.27;;
34212;SDS011;20477;51.390;8.102;2023-03-01T06:55:42;36.22;;;16.30;;
34212;SDS011;20477;51.390;8.102;2023-03-01T06:58:10;32.22;;;16.40;;
34212;SDS011;20477;51.390;8.102;2023-03-01T07:00:38;31.10;;;15.02;;
34212;SDS011;20477;51.390;8.102;2023-03-01T07:03:07;37.83;;;16.27;;
34212;SDS011;20477;51.390;8.102;2023-03-01T07:05:36;33.40;;;15.93;;
34212;SDS011;20477;51.390;8.102;2023-03-01T07:08:04;32.90;;;16.45;;
34212;SDS011;20477;51.390;8.102;2023-03-01T07:10:32;40.83;;;19.92;;
34212;SDS011;20477;51.390;8.102;2023-03-01T07:13:02;55.03;;;22.80;;
34212;SDS011;20477;51.390;8.102;2023-03-01T07:15:32;35.65;;;15.45;;
34212;SDS011;20477;51.390;8.102;2023-03-01T07:18:01;45.40;;;20.58;;
34212;SDS011;20477;51.390;8.102;2023-03-01T07:20:29;41.15;;;19.65;;
34212;SDS011;20477;51.390;8.102;2023-03-01T07:22:57;38.92;;;17.23;;
34212;SDS011;20477;51.390;8.102;2023-03-01T07:25:25;46.67;;;22.55;;
34212;SDS011;20477;51.390;8.102;2023-03-01T07:27:53;51.20;;;21.98;;
34212;SDS011;20477;51.390;8.102;2023-03-01T07:30:23;38.42;;;19.20;;
34212;SDS011;20477;51.390;8.102;2023-03-01T07:32:52;36.90;;;19.55;;
34212;SDS011;20477;51.390;8.102;2023-03-01T07:35:21;38.08;;;19.00;;
34212;SDS011;20477;51.390;8.102;2023-03-01T07:37:50;42.33;;;20.00;;
34212;SDS011;20477;51.390;8.102;2023-03-01T07:40:18;36.53;;;19.08;;
34212;SDS011;20477;51.390;8.102;2023-03-01T07:42:46;47.15;;;22.00;;
34212;SDS011;20477;51.390;8.102;2023-03-01T07:45:14;38.80;;;20.65;;
34212;SDS011;20477;51.390;8.102;2023-03-01T07:47:44;42.95;;;21.42;;
34212;SDS011;20477;51.390;8.102;2023-03-01T07:50:12;41.40;;;21.45;;
34212;SDS011;20477;51.390;8.102;2023-03-01T07:52:41;55.50;;;24.20;;
34212;SDS011;20477;51.390;8.102;2023-03-01T07:55:12;54.17;;;23.58;;
34212;SDS011;20477;51.390;8.102;2023-03-01T07:57:40;60.22;;;26.25;;
34212;SDS011;20477;51.390;8.102;2023-03-01T08:00:09;56.63;;;25.90;;
34212;SDS011;20477;51.390;8.102;2023-03-01T08:02:38;44.10;;;22.52;;
34212;SDS011;20477;51.390;8.102;2023-03-01T08:05:09;46.50;;;23.38;;
34212;SDS011;20477;51.390;8.102;2023-03-01T08:07:38;47.63;;;23.98;;
34212;SDS011;20477;51.390;8.102;2023-03-01T08:10:06;40.90;;;22.80;;
34212;SDS011;20477;51.390;8.102;2023-03-01T08:12:34;43.53;;;22.38;;
34212;SDS011;20477;51.390;8.102;2023-03-01T08:15:03;36.58;;;20.33;;
34212;SDS011;20477;51.390;8.102;2023-03-01T08:17:31;45.08;;;22.58;;
34212;SDS011;20477;51.390;8.102;2023-03-01T08:19:59;38.85;;;22.30;;
34212;SDS011;20477;51.390;8.102;2023-03-01T08:22:29;36.00;;;19.65;;
34212;SDS011;20477;51.390;8.102;2023-03-01T08:24:57;39.17;;;20.13;;
34212;SDS011;20477;51.390;8.102;2023-03-01T08:27:25;36.53;;;20.60;;
34212;SDS011;20477;51.390;8.102;2023-03-01T08:29:53;43.95;;;21.90;;
34212;SDS011;20477;51.390;8.102;2023-03-01T08:32:22;35.85;;;21.48;;
34212;SDS011;20477;51.390;8.102;2023-03-01T08:34:50;35.53;;;22.10;;
34212;SDS011;20477;51.390;8.102;2023-03-01T08:37:18;37.00;;;19.63;;
34212;SDS011;20477;51.390;8.102;2023-03-01T08:39:47;35.53;;;20.83;;
34212;SDS011;20477;51.390;8.102;2023-03-01T08:42:15;39.47;;;20.25;;
34212;SDS011;20477;51.390;8.102;2023-03-01T08:44:43;40.75;;;21.27;;
34212;SDS011;20477;51.390;8.102;2023-03-01T08:47:12;40.85;;;20.98;;
34212;SDS011;20477;51.390;8.102;2023-03-01T08:49:40;40.00;;;20.60;;
34212;SDS011;20477;51.390;8.102;2023-03-01T08:52:08;36.92;;;18.55;;
34212;SDS011;20477;51.390;8.102;2023-03-01T08:54:36;27.75;;;16.60;;
34212;SDS011;20477;51.390;8.102;2023-03-01T08:57:06;27.27;;;15.27;;
34212;SDS011;20477;51.390;8.102;2023-03-01T08:59:35;22.77;;;13.82;;
34212;SDS011;20477;51.390;8.102;2023-03-01T09:02:04;31.00;;;18.00;;
34212;SDS011;20477;51.390;8.102;2023-03-01T09:04:32;34.30;;;17.70;;
34212;SDS011;20477;51.390;8.102;2023-03-01T09:07:00;37.58;;;18.25;;
34212;SDS011;20477;51.390;8.102;2023-03-01T09:09:28;20.33;;;13.23;;
34212;SDS011;20477;51.390;8.102;2023-03-01T09:11:56;20.80;;;12.63;;
34212;SDS011;20477;51.390;8.102;2023-03-01T09:14:26;22.90;;;11.13;;
34212;SDS011;20477;51.390;8.102;2023-03-01T09:16:54;25.17;;;11.60;;
34212;SDS011;20477;51.390;8.102;2023-03-01T09:19:22;23.73;;;11.50;;
34212;SDS011;20477;51.390;8.102;2023-03-01T09:21:52;19.65;;;11.45;;
34212;SDS011;20477;51.390;8.102;2023-03-01T09:24:23;19.77;;;10.82;;
34212;SDS011;20477;51.390;8.102;2023-03-01T09:26:52;19.83;;;11.20;;
34212;SDS011;20477;51.390;8.102;2023-03-01T09:29:21;24.65;;;10.52;;
34212;SDS011;20477;51.390;8.102;2023-03-01T09:31:51;19.15;;;11.30;;
34212;SDS011;20477;51.390;8.102;2023-03-01T09:34:21;35.55;;;20.05;;
34212;SDS011;20477;51.390;8.102;2023-03-01T09:36:50;21.52;;;11.85;;
34212;SDS011;20477;51.390;8.102;2023-03-01T09:39:18;17.15;;;8.95;;
34212;SDS011;20477;51.390;8.102;2023-03-01T09:41:49;29.10;;;12.93;;
34212;SDS011;20477;51.390;8.102;2023-03-01T09:44:24;16.27;;;9.07;;
34212;SDS011;20477;51.390;8.102;2023-03-01T09:46:58;16.13;;;7.80;;
34212;SDS011;20477;51.390;8.102;2023-03-01T09:49:27;16.52;;;8.32;;
34212;SDS011;20477;51.390;8.102;2023-03-01T09:51:59;12.18;;;7.63;;
34212;SDS011;20477;51.390;8.102;2023-03-01T09:54:31;18.70;;;8.00;;
34212;SDS011;20477;51.390;8.102;2023-03-01T09:57:06;17.20;;;8.20;;
34212;SDS011;20477;51.390;8.102;2023-03-01T09:59:45;16.33;;;8.82;;
34212;SDS011;20477;51.390;8.102;2023-03-01T10:02:26;15.00;;;9.38;;
34212;SDS011;20477;51.390;8.102;2023-03-01T10:04:58;13.00;;;8.90;;
34212;SDS011;20477;51.390;8.102;2023-03-01T10:07:36;24.45;;;8.75;;
34212;SDS011;20477;51.390;8.102;2023-03-01T10:10:08;16.60;;;8.52;;
34212;SDS011;20477;51.390;8.102;2023-03-01T10:12:42;14.00;;;8.68;;
34212;SDS011;20477;51.390;8.102;2023-03-01T10:15:11;16.73;;;9.80;;
34212;SDS011;20477;51.390;8.102;2023-03-01T10:17:44;16.35;;;9.38;;
34212;SDS011;20477;51.390;8.102;2023-03-01T10:20:17;24.60;;;9.57;;
34212;SDS011;20477;51.390;8.102;2023-03-01T10:22:47;15.70;;;8.90;;
34212;SDS011;20477;51.390;8.102;2023-03-01T10:25:22;18.50;;;10.68;;
34212;SDS011;20477;51.390;8.102;2023-03-01T10:27:59;16.67;;;10.40;;
34212;SDS011;20477;51.390;8.102;2023-03-01T10:30:32;16.45;;;11.02;;
34212;SDS011;20477;51.390;8.102;2023-03-01T10:33:07;16.90;;;9.05;;
34212;SDS011;20477;51.390;8.102;2023-03-01T10:35:41;19.75;;;9.10;;
34212;SDS011;20477;51.390;8.102;2023-03-01T10:38:10;15.57;;;7.45;;
34212;SDS011;20477;51.390;8.102;2023-03-01T10:40:49;18.10;;;7.60;;
34212;SDS011;20477;51.390;8.102;2023-03-01T10:43:18;16.13;;;7.78;;
34212;SDS011;20477;51.390;8.102;2023-03-01T10:45:48;12.30;;;7.93;;
34212;SDS011;20477;51.390;8.102;2023-03-01T10:48:19;13.43;;;7.78;;
34212;SDS011;20477;51.390;8.102;2023-03-01T10:50:50;20.75;;;8.27;;
34212;SDS011;20477;51.390;8.102;2023-03-01T10:53:32;16.83;;;7.78;;
34212;SDS011;20477;51.390;8.102;2023-03-01T10:56:02;15.70;;;8.63;;
34212;SDS011;20477;51.390;8.102;2023-03-01T10:58:33;10.55;;;6.53;;
34212;SDS011;20477;51.390;8.102;2023-03-01T11:01:03;13.00;;;7.93;;
34212;SDS011;20477;51.390;8.102;2023-03-01T11:03:34;14.50;;;8.15;;
34212;SDS011;20477;51.390;8.102;2023-03-01T11:06:04;15.50;;;7.93;;
34212;SDS011;20477;51.390;8.102;2023-03-01T11:08:40;13.55;;;7.07;;
34212;SDS011;20477;51.390;8.102;2023-03-01T11:11:22;16.15;;;7.75;;
34212;SDS011;20477;51.390;8.102;2023-03-01T11:14:00;15.05;;;8.27;;
34212;SDS011;20477;51.390;8.102;2023-03-01T11:16:57;13.25;;;7.28;;
34212;SDS011;20477;51.390;8.102;2023-03-01T11:19:28;16.50;;;7.65;;
34212;SDS011;20477;51.390;8.102;2023-03-01T11:21:58;14.30;;;8.48;;
34212;SDS011;20477;51.390;8.102;2023-03-01T11:26:59;13.27;;;7.53;;
34212;SDS011;20477;51.390;8.102;2023-03-01T11:29:32;15.75;;;7.88;;
34212;SDS011;20477;51.390;8.102;2023-03-01T11:32:13;13.43;;;8.20;;
34212;SDS011;20477;51.390;8.102;2023-03-01T11:34:45;23.02;;;7.68;;
34212;SDS011;20477;51.390;8.102;2023-03-01T11:37:26;11.18;;;7.60;;
34212;SDS011;20477;51.390;8.102;2023-03-01T11:40:02;13.57;;;7.68;;
34212;SDS011;20477;51.390;8.102;2023-03-01T11:42:42;15.18;;;8.43;;
34212;SDS011;20477;51.390;8.102;2023-03-01T11:45:16;15.02;;;8.18;;
34212;SDS011;20477;51.390;8.102;2023-03-01T11:47:55;9.40;;;5.43;;
34212;SDS011;20477;51.390;8.102;2023-03-01T11:50:35;16.70;;;7.68;;
34212;SDS011;20477;51.390;8.102;2023-03-01T11:53:13;13.05;;;6.90;;
34212;SDS011;20477;51.390;8.102;2023-03-01T11:55:55;15.55;;;8.00;;
34212;SDS011;20477;51.390;8.102;2023-03-01T11:58:38;13.45;;;6.88;;
34212;SDS011;20477;51.390;8.102;2023-03-01T12:01:31;9.65;;;5.40;;
34212;SDS011;20477;51.390;8.102;2023-03-01T12:04:20;13.45;;;7.00;;
34212;SDS011;20477;51.390;8.102;2023-03-01T12:07:01;11.68;;;7.43;;
34212;SDS011;20477;51.390;8.102;2023-03-01T12:09:38;9.82;;;5.43;;
34212;SDS011;20477;51.390;8.102;2023-03-01T12:12:17;14.70;;;6.72;;
34212;SDS011;20477;51.390;8.102;2023-03-01T12:15:00;16.30;;;7.25;;
34212;SDS011;20477;51.390;8.102;2023-03-01T12:20:30;15.98;;;6.90;;
34212;SDS011;20477;51.390;8.102;2023-03-01T12:25:56;11.75;;;6.80;;
34212;SDS011;20477;51.390;8.102;2023-03-01T12:28:32;11.77;;;6.38;;
34212;SDS011;20477;51.390;8.102;2023-03-01T12:31:16;12.82;;;5.90;;
34212;SDS011;20477;51.390;8.102;2023-03-01T12:33:57;12.05;;;5.57;;
34212;SDS011;20477;51.390;8.102;2023-03-01T12:36:36;7.97;;;5.00;;
34212;SDS011;20477;51.390;8.102;2023-03-01T12:39:30;10.43;;;6.70;;
34212;SDS011;20477;51.390;8.102;2023-03-01T12:42:07;11.07;;;6.68;;
34212;SDS011;20477;51.390;8.102;2023-03-01T12:44:47;14.18;;;7.30;;
34212;SDS011;20477;51.390;8.102;2023-03-01T12:47:26;10.23;;;5.35;;
34212;SDS011;20477;51.390;8.102;2023-03-01T12:50:01;12.48;;;6.75;;
34212;SDS011;20477;51.390;8.102;2023-03-01T12:52:33;10.18;;;5.35;;
34212;SDS011;20477;51.390;8.102;2023-03-01T12:55:06;12.43;;;7.05;;
34212;SDS011;20477;51.390;8.102;2023-03-01T12:57:45;13.13;;;5.97;;
34212;SDS011;20477;51.390;8.102;2023-03-01T13:02:48;10.05;;;5.45;;
34212;SDS011;20477;51.390;8.102;2023-03-01T13:05:23;12.50;;;7.57;;
34212;SDS011;20477;51.390;8.102;2023-03-01T13:07:58;15.88;;;7.10;;
34212;SDS011;20477;51.390;8.102;2023-03-01T13:10:30;13.70;;;6.85;;
34212;SDS011;20477;51.390;8.102;2023-03-01T13:13:08;12.68;;;6.13;;
34212;SDS011;20477;51.390;8.102;2023-03-01T13:15:42;14.50;;;5.70;;
34212;SDS011;20477;51.390;8.102;2023-03-01T13:20:57;12.93;;;6.65;;
34212;SDS011;20477;51.390;8.102;2023-03-01T13:23:30;15.18;;;7.85;;
34212;SDS011;20477;51.390;8.102;2023-03-01T13:26:05;16.45;;;7.15;;
34212;SDS011;20477;51.390;8.102;2023-03-01T13:28:39;11.55;;;6.85;;
34212;SDS011;20477;51.390;8.102;2023-03-01T13:34:42;11.88;;;6.80;;
34212;SDS011;20477;51.390;8.102;2023-03-01T13:37:19;12.40;;;7.82;;
34212;SDS011;20477;51.390;8.102;2023-03-01T13:39:49;13.27;;;7.22;;
34212;SDS011;20477;51.390;8.102;2023-03-01T13:45:36;8.75;;;5.22;;
34212;SDS011;20477;51.390;8.102;2023-03-01T13:48:09;13.45;;;5.97;;
34212;SDS011;20477;51.390;8.102;2023-03-01T13:50:45;10.43;;;5.95;;
34212;SDS011;20477;51.390;8.102;2023-03-01T13:53:16;15.40;;;7.10;;
34212;SDS011;20477;51.390;8.102;2023-03-01T13:55:46;9.75;;;5.40;;
34212;SDS011;20477;51.390;8.102;2023-03-01T13:58:17;12.73;;;6.68;;
34212;SDS011;20477;51.390;8.102;2023-03-01T14:00:55;9.98;;;5.72;;
34212;SDS011;20477;51.390;8.102;2023-03-01T14:03:27;12.60;;;6.55;;
34212;SDS011;20477;51.390;8.102;2023-03-01T14:05:58;10.95;;;6.53;;
34212;SDS011;20477;51.390;8.102;2023-03-01T14:08:40;14.57;;;7.13;;
34212;SDS011;20477;51.390;8.102;2023-03-01T14:14:39;12.88;;;6.72;;
34212;SDS011;20477;51.390;8.102;2023-03-01T14:20:09;13.82;;;7.35;;
34212;SDS011;20477;51.390;8.102;2023-03-01T14:22:40;11.75;;;7.47;;
34212;SDS011;20477;51.390;8.102;2023-03-01T14:28:03;10.13;;;5.97;;
34212;SDS011;20477;51.390;8.102;2023-03-01T14:30:38;11.80;;;6.68;;
34212;SDS011;20477;51.390;8.102;2023-03-01T14:33:19;11.00;;;7.05;;
34212;SDS011;20477;51.390;8.102;2023-03-01T14:35:58;10.63;;;6.45;;
34212;SDS011;20477;51.390;8.102;2023-03-01T14:38:33;12.27;;;6.72;;
34212;SDS011;20477;51.390;8.102;2023-03-01T14:41:05;11.80;;;7.05;;
34212;SDS011;20477;51.390;8.102;2023-03-01T14:43:35;12.13;;;6.65;;
34212;SDS011;20477;51.390;8.102;2023-03-01T14:46:04;10.10;;;6.88;;
34212;SDS011;20477;51.390;8.102;2023-03-01T14:48:34;9.35;;;5.55;;
34212;SDS011;20477;51.390;8.102;2023-03-01T14:51:02;15.02;;;5.55;;
34212;SDS011;20477;51.390;8.102;2023-03-01T14:53:32;11.90;;;6.03;;
34212;SDS011;20477;51.390;8.102;2023-03-01T14:58:44;10.10;;;5.35;;
34212;SDS011;20477;51.390;8.102;2023-03-01T15:01:14;12.82;;;6.68;;
34212;SDS011;20477;51.390;8.102;2023-03-01T15:03:45;9.18;;;6.10;;
34212;SDS011;20477;51.390;8.102;2023-03-01T15:06:15;9.77;;;5.70;;
34212;SDS011;20477;51.390;8.102;2023-03-01T15:08:45;9.55;;;5.70;;
34212;SDS011;20477;51.390;8.102;2023-03-01T15:11:19;8.60;;;4.53;;
34212;SDS011;20477;51.390;8.102;2023-03-01T15:14:03;9.23;;;5.97;;
34212;SDS011;20477;51.390;8.102;2023-03-01T15:16:56;12.43;;;6.00;;
34212;SDS011;20477;51.390;8.102;2023-03-01T15:19:24;9.90;;;6.00;;
34212;SDS011;20477;51.390;8.102;2023-03-01T15:21:54;15.18;;;5.10;;
34212;SDS011;20477;51.390;8.102;2023-03-01T15:24:23;8.90;;;5.30;;
34212;SDS011;20477;51.390;8.102;2023-03-01T15:26:54;9.10;;;4.45;;
34212;SDS011;20477;51.390;8.102;2023-03-01T15:29:24;16.25;;;7.35;;
34212;SDS011;20477;51.390;8.102;2023-03-01T15:31:58;12.63;;;6.57;;
34212;SDS011;20477;51.390;8.102;2023-03-01T15:34:30;13.85;;;7.22;;
34212;SDS011;20477;51.390;8.102;2023-03-01T15:36:59;8.43;;;5.43;;
34212;SDS011;20477;51.390;8.102;2023-03-01T15:39:35;11.27;;;5.70;;
34212;SDS011;20477;51.390;8.102;2023-03-01T15:42:06;11.82;;;4.72;;
34212;SDS011;20477;51.390;8.102;2023-03-01T15:44:35;11.00;;;5.80;;
34212;SDS011;20477;51.390;8.102;2023-03-01T15:47:23;9.48;;;6.57;;
34212;SDS011;20477;51.390;8.102;2023-03-01T15:49:55;12.77;;;6.80;;
34212;SDS011;20477;51.390;8.102;2023-03-01T15:52:26;13.88;;;7.18;;
34212;SDS011;20477;51.390;8.102;2023-03-01T15:54:57;11.73;;;6.05;;
34212;SDS011;20477;51.390;8.102;2023-03-01T15:57:25;10.57;;;4.80;;
34212;SDS011;20477;51.390;8.102;2023-03-01T15:59:53;8.88;;;5.57;;
34212;SDS011;20477;51.390;8.102;2023-03-01T16:02:23;11.25;;;6.10;;
34212;SDS011;20477;51.390;8.102;2023-03-01T16:04:52;9.18;;;5.63;;
34212;SDS011;20477;51.390;8.102;2023-03-01T16:07:22;10.98;;;5.72;;
34212;SDS011;20477;51.390;8.102;2023-03-01T16:09:53;12.18;;;6.82;;
34212;SDS011;20477;51.390;8.102;2023-03-01T16:12:21;12.23;;;6.07;;
34212;SDS011;20477;51.390;8.102;2023-03-01T16:14:50;11.13;;;6.22;;
34212;SDS011;20477;51.390;8.102;2023-03-01T16:17:20;12.85;;;6.30;;
34212;SDS011;20477;51.390;8.102;2023-03-01T16:19:49;15.68;;;8.02;;
34212;SDS011;20477;51.390;8.102;2023-03-01T16:22:17;10.88;;;6.63;;
34212;SDS011;20477;51.390;8.102;2023-03-01T16:24:51;9.60;;;5.65;;
34212;SDS011;20477;51.390;8.102;2023-03-01T16:27:19;11.52;;;5.40;;
34212;SDS011;20477;51.390;8.102;2023-03-01T16:29:47;10.65;;;6.88;;
34212;SDS011;20477;51.390;8.102;2023-03-01T16:32:15;12.88;;;7.90;;
34212;SDS011;20477;51.390;8.102;2023-03-01T16:34:44;13.13;;;7.20;;
34212;SDS011;20477;51.390;8.102;2023-03-01T16:37:16;10.30;;;5.40;;
34212;SDS011;20477;51.390;8.102;2023-03-01T16:39:45;11.73;;;6.25;;
34212;SDS011;20477;51.390;8.102;2023-03-01T16:42:15;17.88;;;8.60;;
34212;SDS011;20477;51.390;8.102;2023-03-01T16:44:43;10.82;;;5.20;;
34212;SDS011;20477;51.390;8.102;2023-03-01T16:47:11;21.75;;;6.28;;
34212;SDS011;20477;51.390;8.102;2023-03-01T16:49:39;11.55;;;6.25;;
34212;SDS011;20477;51.390;8.102;2023-03-01T16:52:07;17.23;;;6.85;;
34212;SDS011;20477;51.390;8.102;2023-03-01T16:54:37;12.88;;;6.30;;
34212;SDS011;20477;51.390;8.102;2023-03-01T16:57:05;10.23;;;6.68;;
34212;SDS011;20477;51.390;8.102;2023-03-01T16:59:33;9.32;;;6.28;;
34212;SDS011;20477;51.390;8.102;2023-03-01T17:02:01;19.13;;;6.75;;
34212;SDS011;20477;51.390;8.102;2023-03-01T17:04:29;13.32;;;6.30;;
34212;SDS011;20477;51.390;8.102;2023-03-01T17:06:57;11.23;;;6.10;;
34212;SDS011;20477;51.390;8.102;2023-03-01T17:09:25;9.15;;;6.10;;
34212;SDS011;20477;51.390;8.102;2023-03-01T17:11:57;9.25;;;5.85;;
34212;SDS011;20477;51.390;8.102;2023-03-01T17:14:25;12.63;;;7.35;;
34212;SDS011;20477;51.390;8.102;2023-03-01T17:16:53;14.32;;;6.50;;
34212;SDS011;20477;51.390;8.102;2023-03-01T17:19:22;13.80;;;7.57;;
34212;SDS011;20477;51.390;8.102;2023-03-01T17:21:50;11.98;;;6.35;;
34212;SDS011;20477;51.390;8.102;2023-03-01T17:24:18;31.50;;;19.98;;
34212;SDS011;20477;51.390;8.102;2023-03-01T17:26:46;16.63;;;11.43;;
34212;SDS011;20477;51.390;8.102;2023-03-01T17:29:16;12.52;;;6.40;;
34212;SDS011;20477;51.390;8.102;2023-03-01T17:31:44;15.13;;;6.65;;
34212;SDS011;20477;51.390;8.102;2023-03-01T17:34:12;14.27;;;6.90;;
34212;SDS011;20477;51.390;8.102;2023-03-01T17:36:41;14.23;;;6.72;;
34212;SDS011;20477;51.390;8.102;2023-03-01T17:39:12;15.05;;;7.40;;
34212;SDS011;20477;51.390;8.102;2023-03-01T17:41:40;17.05;;;8.05;;
34212;SDS011;20477;51.390;8.102;2023-03-01T17:44:08;13.75;;;7.75;;
34212;SDS011;20477;51.390;8.102;2023-03-01T17:46:37;19.58;;;10.50;;
34212;SDS011;20477;51.390;8.102;2023-03-01T17:49:05;11.48;;;8.07;;
34212;SDS011;20477;51.390;8.102;2023-03-01T17:51:33;21.60;;;11.50;;
34212;SDS011;20477;51.390;8.102;2023-03-01T17:54:04;18.10;;;10.55;;
34212;SDS011;20477;51.390;8.102;2023-03-01T17:56:32;18.50;;;10.15;;
34212;SDS011;20477;51.390;8.102;2023-03-01T17:59:00;19.58;;;10.63;;
34212;SDS011;20477;51.390;8.102;2023-03-01T18:01:28;40.75;;;23.08;;
34212;SDS011;20477;51.390;8.102;2023-03-01T18:03:58;34.13;;;19.92;;
34212;SDS011;20477;51.390;8.102;2023-03-01T18:06:26;22.30;;;13.02;;
34212;SDS011;20477;51.390;8.102;2023-03-01T18:08:55;19.27;;;10.65;;
34212;SDS011;20477;51.390;8.102;2023-03-01T18:11:24;22.92;;;10.77;;
34212;SDS011;20477;51.390;8.102;2023-03-01T18:13:52;14.45;;;8.25;;
34212;SDS011;20477;51.390;8.102;2023-03-01T18:16:21;19.95;;;9.88;;
34212;SDS011;20477;51.390;8.102;2023-03-01T18:18:51;18.10;;;9.73;;
34212;SDS011;20477;51.390;8.102;2023-03-01T18:21:22;17.98;;;10.45;;
34212;SDS011;20477;51.390;8.102;2023-03-01T18:23:51;34.70;;;11.40;;
34212;SDS011;20477;51.390;8.102;2023-03-01T18:26:20;124.80;;;70.40;;
34212;SDS011;20477;51.390;8.102;2023-03-01T18:28:50;75.30;;;44.88;;
34212;SDS011;20477;51.390;8.102;2023-03-01T18:31:19;46.42;;;31.02;;
34212;SDS011;20477;51.390;8.102;2023-03-01T18:33:49;60.72;;;35.70;;
34212;SDS011;20477;51.390;8.102;2023-03-01T18:36:21;25.55;;;15.15;;
34212;SDS011;20477;51.390;8.102;2023-03-01T18:38:51;19.58;;;13.68;;
34212;SDS011;20477;51.390;8.102;2023-03-01T18:41:21;19.30;;;11.45;;
34212;SDS011;20477;51.390;8.102;2023-03-01T18:43:50;35.92;;;20.08;;
34212;SDS011;20477;51.390;8.102;2023-03-01T18:46:18;30.92;;;17.17;;
34212;SDS011;20477;51.390;8.102;2023-03-01T18:48:47;34.55;;;16.20;;
34212;SDS011;20477;51.390;8.102;2023-03-01T18:51:15;23.98;;;12.35;;
34212;SDS011;20477;51.390;8.102;2023-03-01T18:53:46;23.50;;;13.27;;
34212;SDS011;20477;51.390;8.102;2023-03-01T18:56:14;32.80;;;18.05;;
34212;SDS011;20477;51.390;8.102;2023-03-01T18:58:42;26.15;;;14.63;;
34212;SDS011;20477;51.390;8.102;2023-03-01T19:01:11;42.20;;;14.10;;
34212;SDS011;20477;51.390;8.102;2023-03-01T19:03:40;25.30;;;12.13;;
34212;SDS011;20477;51.390;8.102;2023-03-01T19:06:08;23.42;;;12.55;;
34212;SDS011;20477;51.390;8.102;2023-03-01T19:08:36;22.95;;;12.52;;
34212;SDS011;20477;51.390;8.102;2023-03-01T19:11:07;44.28;;;18.95;;
34212;SDS011;20477;51.390;8.102;2023-03-01T19:13:36;39.47;;;18.45;;
34212;SDS011;20477;51.390;8.102;2023-03-01T19:16:06;38.78;;;17.23;;
34212;SDS011;20477;51.390;8.102;2023-03-01T19:18:35;39.90;;;19.67;;
34212;SDS011;20477;51.390;8.102;2023-03-01T19:21:07;35.67;;;17.77;;
34212;SDS011;20477;51.390;8.102;2023-03-01T19:23:36;18.13;;;9.93;;
34212;SDS011;20477;51.390;8.102;2023-03-01T19:26:05;29.42;;;16.70;;
34212;SDS011;20477;51.390;8.102;2023-03-01T19:28:36;20.50;;;10.65;;
34212;SDS011;20477;51.390;8.102;2023-03-01T19:31:05;12.50;;;7.60;;
34212;SDS011;20477;51.390;8.102;2023-03-01T19:33:35;30.10;;;16.45;;
34212;SDS011;20477;51.390;8.102;2023-03-01T19:36:05;19.25;;;13.57;;
34212;SDS011;20477;51.390;8.102;2023-03-01T19:38:34;15.00;;;10.52;;
34212;SDS011;20477;51.390;8.102;2023-03-01T19:41:03;17.50;;;9.52;;